Airfield :
LOGIN :

Register | Disclaimer

   EN    FR    IT 

 










Legend :    VFR   Marginal VFR   IFR   Intensive IFR   Very Intensive IFR
Visi :
Ceiling :
>= 8 km
>= 3000ft
5 to 8 km
1000 to 3000 ft
1500m to 5 km
500 to 1000 ft
800 to 1500m
200 to 500 ft
< 800m
< 200 ft
Symbols :   Thunderstorms  Fog  Heavy snow  Heavy precipitations  Wind > 20 kt
SIGMETs :     Misc.  Thunderstorms  Icing  Turbulence  Mountain Waves  Volcanic Ashes






- Airport Elevation : 74 ft
- IATA code : MRS


LFML - Marseille / Marignane

CURRENT METAR :
  • 160530Z AUTO 14004KT CAVOK 15/14 Q1009 NOSIG

EXPIRED METARs :
  • 160500Z AUTO VRB03KT 9999 -RA NSC 15/14 Q1009 NOSIG
  • 160430Z AUTO 00000KT 9999 -RA NSC 15/13 Q1009 NOSIG
  • 160400Z AUTO 13002KT CAVOK 15/13 Q1009 TEMPO 4000 RA BKN014
  • 160330Z AUTO VRB02KT 9999 -RA NSC 15/13 Q1009 TEMPO 4000 RA BKN014
  • 160300Z AUTO VRB02KT CAVOK 15/14 Q1010 TEMPO 4000 RA BKN014

TAF TAF LFML
Valid from the 16 at 03:00 until the 17 at 09:00 UTC


160200Z 1603/1709 17005KT 9999 FEW020 BKN050 TX21/1613Z TN14/1604Z
TEMPO 1603/1605 4000 RA BKN014
BECMG 1607/1608 BKN015 BKN050
BECMG 1613/1615 26010KT
TEMPO 1616/1618 4000 RA
BECMG 1618/1619 28015KT CAVOK
ATIS : +33 4 42 31 15 15



MET'MAP, your aeronautical weather chart ! - Copyright ORBIFLY December 2007 - Disclaimer

ORBIFLY MET'MAP TEAM :

Programming & Development : Alexandra Zaïnal
Concept & original design : Baudouin d'Aumeries
Assistance for programming : Marc-Olivier Méhu
Technical & hardware support : Manuel Goepfert

Contact : metmap@orbifly.com




SOURCES & CREDITS :

   NOAA